Time;durP1;ratioP1;P1;durP2;ratioP2;P2;SDS_P1;SDS_P2;PMS_P1;PMS_P2;Temp;Humidity;BMP_temperature;BMP_pressure;BME280_temperature;BME280_humidity;BME280_pressure;Samples;Min_cycle;Max_cycle;Signal;HPM_P1;HPM_P2
2021/08/31 00:00:59;;;;;;;6.50;6.00;;;;;;;15.87;82.21;101436.38;5033217;28;21037;-80
2021/08/31 00:03:25;;;;;;;6.47;5.97;;;;;;;15.84;82.50;101412.78;5033097;28;20307;-77
2021/08/31 00:05:52;;;;;;;7.53;6.73;;;;;;;15.83;83.04;101403.97;5032681;28;20206;-78
2021/08/31 00:08:18;;;;;;;6.40;5.90;;;;;;;15.87;82.68;101424.06;5036667;28;20211;-78
2021/08/31 00:10:44;;;;;;;7.00;6.40;;;;;;;15.85;82.58;101419.75;5033403;28;20258;-77
2021/08/31 00:13:11;;;;;;;6.70;5.67;;;;;;;15.87;82.28;101429.34;5032481;28;20582;-76
2021/08/31 00:15:38;;;;;;;5.87;5.47;;;;;;;15.86;81.78;101450.47;5035848;28;20257;-78
2021/08/31 00:18:05;;;;;;;6.90;6.40;;;;;;;15.85;82.26;101423.25;5037465;28;20206;-77
2021/08/31 00:20:31;;;;;;;7.53;6.93;;;;;;;15.80;82.05;101426.91;5036529;28;20291;-78
2021/08/31 00:22:58;;;;;;;7.30;6.80;;;;;;;15.82;82.27;101418.06;5034160;28;20206;-79
2021/08/31 00:25:25;;;;;;;7.10;6.60;;;;;;;15.80;82.10;101429.53;5034505;28;20634;-78
2021/08/31 00:27:52;;;;;;;6.27;5.87;;;;;;;15.79;82.48;101419.91;5035250;28;20203;-78
2021/08/31 00:30:18;;;;;;;6.60;6.10;;;;;;;15.81;83.35;101394.41;5039016;28;20221;-77
2021/08/31 00:32:46;;;;;;;6.83;6.23;;;;;;;15.81;82.91;101392.63;5040084;28;20215;-79
2021/08/31 00:35:12;;;;;;;7.07;6.20;;;;;;;15.82;83.50;101380.34;5038245;28;20528;-79
2021/08/31 00:37:38;;;;;;;8.20;7.60;;;;;;;15.78;83.17;101394.50;5040360;28;20210;-77
2021/08/31 00:40:06;;;;;;;6.10;5.60;;;;;;;15.83;83.56;101374.16;5040717;28;20279;-79
2021/08/31 00:42:33;;;;;;;7.10;6.40;;;;;;;15.81;83.52;101381.25;5037103;28;20827;-78
2021/08/31 00:44:59;;;;;;;7.23;6.63;;;;;;;15.82;83.99;101362.78;5039759;28;20214;-79
2021/08/31 00:47:27;;;;;;;6.60;6.10;;;;;;;15.80;83.19;101388.28;5041372;28;20273;-79
2021/08/31 00:49:54;;;;;;;6.43;6.03;;;;;;;15.72;82.77;101384.94;5041345;28;20200;-79
2021/08/31 00:52:21;;;;;;;7.23;6.70;;;;;;;15.60;82.80;101401.91;5039847;28;20234;-79
2021/08/31 00:54:48;;;;;;;6.87;6.37;;;;;;;15.63;83.25;101385.16;5037834;28;20204;-77
2021/08/31 00:57:14;;;;;;;6.53;6.03;;;;;;;15.59;83.42;101367.72;5039003;28;20214;-78
2021/08/31 00:59:41;;;;;;;6.97;6.30;;;;;;;15.63;84.02;101346.53;5041967;28;20249;-78
2021/08/31 01:02:07;;;;;;;6.53;6.03;;;;;;;15.68;84.22;101326.25;5039583;28;20538;-77
2021/08/31 01:04:34;;;;;;;6.50;5.93;;;;;;;15.59;83.11;101375.63;5042412;28;20692;-79
2021/08/31 01:07:01;;;;;;;6.63;6.10;;;;;;;15.62;83.27;101375.56;5038662;28;20209;-78
2021/08/31 01:09:28;;;;;;;7.57;6.60;;;;;;;15.52;83.32;101384.56;5039630;28;20230;-79
2021/08/31 01:11:56;;;;;;;7.27;6.57;;;;;;;15.40;83.91;101352.41;5037813;28;20235;-77
2021/08/31 01:14:24;;;;;;;7.50;6.80;;;;;;;15.51;85.36;101302.13;5041231;28;20635;-78
2021/08/31 01:16:51;;;;;;;7.20;6.67;;;;;;;15.49;84.98;101311.81;5040586;28;20260;-78
2021/08/31 01:19:18;;;;;;;7.87;7.33;;;;;;;15.22;85.53;101303.72;5041566;28;20223;-77
2021/08/31 01:21:44;;;;;;;8.73;7.93;;;;;;;15.15;86.33;101269.72;5037766;28;20810;-77
2021/08/31 01:24:12;;;;;;;8.67;7.97;;;;;;;15.17;86.73;101258.25;5037582;28;20237;-79
2021/08/31 01:26:40;;;;;;;9.07;8.33;;;;;;;15.07;86.56;101264.66;5038954;28;20634;-79
2021/08/31 01:29:06;;;;;;;8.40;7.80;;;;;;;15.13;87.14;101240.81;5039334;28;20248;-78
2021/08/31 01:31:33;;;;;;;8.93;8.23;;;;;;;15.13;87.00;101255.75;5039210;28;20607;-77
2021/08/31 01:33:59;;;;;;;8.80;8.00;;;;;;;15.11;87.25;101250.53;5040273;28;20579;-79
2021/08/31 01:36:27;;;;;;;8.43;7.80;;;;;;;15.18;87.14;101257.38;5039193;28;20211;-79
2021/08/31 01:38:56;;;;;;;8.67;8.07;;;;;;;15.13;86.82;101266.28;5038817;28;20213;-76
2021/08/31 01:41:23;;;;;;;8.83;8.20;;;;;;;15.06;87.16;101269.06;5037560;28;20316;-77
2021/08/31 01:43:52;;;;;;;8.90;8.20;;;;;;;15.14;87.52;101257.47;5039531;28;20233;-78
2021/08/31 01:46:18;;;;;;;9.27;8.53;;;;;;;14.99;87.52;101256.94;5035873;28;20211;-79
2021/08/31 01:48:44;;;;;;;9.83;8.93;;;;;;;14.94;87.90;101237.78;5039050;28;20240;-78
2021/08/31 01:51:11;;;;;;;7.97;7.33;;;;;;;15.03;89.21;101203.38;5038907;28;20238;-77
2021/08/31 01:53:38;;;;;;;8.90;8.20;;;;;;;14.77;89.26;101197.91;5040810;28;20263;-78
2021/08/31 01:56:05;;;;;;;8.20;7.60;;;;;;;14.60;90.68;101154.50;5036839;28;20201;-79
2021/08/31 01:58:32;;;;;;;9.07;8.37;;;;;;;14.46;91.38;101128.50;5036640;28;20752;-77
2021/08/31 02:00:59;;;;;;;9.13;8.33;;;;;;;14.57;92.00;101102.03;5034268;28;20741;-79
2021/08/31 02:03:26;;;;;;;8.80;8.00;;;;;;;14.54;91.83;101117.81;5038309;28;20211;-78
2021/08/31 02:05:52;;;;;;;8.60;7.90;;;;;;;14.41;92.69;101090.13;5039814;28;20205;-77
2021/08/31 02:08:19;;;;;;;10.23;9.40;;;;;;;14.11;93.67;101047.94;5039157;28;20961;-78
2021/08/31 02:10:45;;;;;;;10.03;9.23;;;;;;;14.06;94.49;101029.69;5041219;28;20226;-79
2021/08/31 02:13:12;;;;;;;12.70;9.20;;;;;;;14.19;95.41;101011.00;5036188;28;20214;-77
2021/08/31 02:15:38;;;;;;;9.20;8.40;;;;;;;14.36;95.73;101000.94;5037308;28;20206;-78
2021/08/31 02:18:06;;;;;;;11.70;8.67;;;;;;;14.56;95.57;101004.81;5037871;28;20739;-78
2021/08/31 02:20:32;;;;;;;10.70;9.80;;;;;;;14.52;94.07;101066.22;5038813;28;20234;-78
2021/08/31 02:22:59;;;;;;;9.07;8.27;;;;;;;14.43;93.49;101085.69;5037969;28;20233;-77
2021/08/31 02:25:25;;;;;;;11.33;10.33;;;;;;;14.22;94.50;101071.34;5037561;28;20210;-78
2021/08/31 02:27:51;;;;;;;10.80;9.90;;;;;;;14.13;95.05;101045.28;5037610;28;20206;-79
2021/08/31 02:30:18;;;;;;;10.73;9.83;;;;;;;14.02;95.89;101020.16;5035178;28;20247;-77
2021/08/31 02:32:45;;;;;;;12.67;11.67;;;;;;;13.96;96.46;100995.84;5037234;28;20475;-78
2021/08/31 02:35:13;;;;;;;12.37;11.40;;;;;;;13.90;97.31;100979.31;5036463;28;20566;-78
2021/08/31 02:37:39;;;;;;;10.43;9.73;;;;;;;13.97;97.99;100974.78;5038200;28;20263;-78
2021/08/31 02:40:06;;;;;;;13.63;10.40;;;;;;;14.18;97.97;100972.53;5039882;28;20240;-77
2021/08/31 02:42:33;;;;;;;11.27;10.17;;;;;;;14.18;97.41;100988.28;5037845;28;20240;-78
2021/08/31 02:44:59;;;;;;;13.67;12.47;;;;;;;14.11;96.91;100990.19;5036828;28;20241;-77
2021/08/31 02:47:26;;;;;;;13.70;12.33;;;;;;;14.05;97.67;100977.22;5037066;28;20645;-78
2021/08/31 02:49:52;;;;;;;12.67;11.37;;;;;;;14.07;97.93;100970.16;5038224;28;20244;-78
2021/08/31 02:52:20;;;;;;;13.90;12.53;;;;;;;13.99;98.44;100961.63;5035761;28;20284;-77
2021/08/31 02:54:46;;;;;;;15.13;14.07;;;;;;;13.80;99.68;100927.97;5035963;28;20209;-77
2021/08/31 02:57:12;;;;;;;15.73;14.43;;;;;;;13.74;100.00;100906.28;5034251;28;20210;-77
2021/08/31 02:59:39;;;;;;;16.10;14.87;;;;;;;13.67;100.00;100892.44;5037671;28;20251;-78
2021/08/31 03:02:06;;;;;;;17.00;15.70;;;;;;;13.64;100.00;100888.13;5035836;28;20298;-78
2021/08/31 03:04:33;;;;;;;16.77;15.57;;;;;;;13.59;100.00;100876.88;5036071;28;20673;-78
2021/08/31 03:07:00;;;;;;;18.07;16.47;;;;;;;13.54;100.00;100880.50;5037212;28;20218;-78
2021/08/31 03:09:27;;;;;;;19.27;17.63;;;;;;;13.49;100.00;100868.34;5037634;28;20257;-78
2021/08/31 03:11:53;;;;;;;18.83;17.33;;;;;;;13.46;100.00;100865.81;5037525;28;20225;-78
2021/08/31 03:14:21;;;;;;;19.53;17.50;;;;;;;13.45;100.00;100871.09;5036424;28;20236;-78
2021/08/31 03:16:47;;;;;;;20.40;18.33;;;;;;;13.48;100.00;100869.28;5038751;28;20237;-78
2021/08/31 03:19:14;;;;;;;20.90;18.80;;;;;;;13.47;100.00;100875.41;5036240;28;20267;-77
2021/08/31 03:21:40;;;;;;;19.97;17.97;;;;;;;13.44;100.00;100891.22;5035695;28;20225;-78
2021/08/31 03:24:07;;;;;;;20.90;19.10;;;;;;;13.45;100.00;100895.56;5033634;28;20256;-77
2021/08/31 03:26:35;;;;;;;25.23;20.03;;;;;;;13.42;100.00;100903.50;5037061;28;20262;-78
2021/08/31 03:29:01;;;;;;;20.33;18.37;;;;;;;13.47;100.00;100898.16;5036604;28;20205;-77
2021/08/31 03:31:27;;;;;;;22.10;20.00;;;;;;;13.45;100.00;100899.94;5034541;28;20225;-78
2021/08/31 03:33:54;;;;;;;22.33;20.37;;;;;;;13.47;100.00;100899.00;5035058;28;20201;-79
2021/08/31 03:36:20;;;;;;;22.67;20.40;;;;;;;13.47;100.00;100908.63;5035756;28;20207;-78
2021/08/31 03:38:46;;;;;;;23.23;20.77;;;;;;;13.49;100.00;100912.94;5033262;28;20198;-78
2021/08/31 03:41:13;;;;;;;24.43;21.87;;;;;;;13.52;100.00;100917.28;5033235;28;20261;-77
2021/08/31 03:43:40;;;;;;;23.77;21.60;;;;;;;13.55;100.00;100919.81;5035826;28;20213;-78
2021/08/31 03:46:07;;;;;;;26.87;22.57;;;;;;;13.58;100.00;100932.00;5036134;28;20209;-77
2021/08/31 03:48:33;;;;;;;24.17;22.07;;;;;;;13.61;100.00;100937.16;5036856;28;20266;-77
2021/08/31 03:50:59;;;;;;;25.33;22.73;;;;;;;13.62;100.00;100938.91;5036314;28;20219;-77
2021/08/31 03:53:26;;;;;;;24.10;21.70;;;;;;;13.64;100.00;100950.22;5036208;28;20460;-78
2021/08/31 03:55:52;;;;;;;29.80;22.77;;;;;;;13.64;100.00;100952.84;5037481;28;20218;-77
2021/08/31 03:58:18;;;;;;;22.90;20.77;;;;;;;13.68;100.00;100960.59;5032375;28;20206;-78
2021/08/31 04:00:46;;;;;;;24.13;21.70;;;;;;;13.71;100.00;100972.78;5035718;28;20288;-78
2021/08/31 04:03:12;;;;;;;24.47;22.23;;;;;;;13.71;100.00;100967.53;5034670;28;20210;-77
2021/08/31 04:05:39;;;;;;;23.43;21.40;;;;;;;13.77;100.00;100977.88;5039613;28;20248;-78
2021/08/31 04:08:06;;;;;;;25.03;22.47;;;;;;;13.74;100.00;100979.75;5038153;28;20263;-78
2021/08/31 04:10:32;;;;;;;24.53;22.03;;;;;;;13.73;100.00;100980.63;5039878;28;20281;-77
2021/08/31 04:12:58;;;;;;;25.27;22.70;;;;;;;13.72;100.00;100985.00;5041779;28;20737;-78
2021/08/31 04:15:25;;;;;;;24.43;22.03;;;;;;;13.70;100.00;100990.28;5039734;28;20206;-78
2021/08/31 04:17:52;;;;;;;25.10;22.57;;;;;;;13.68;100.00;100992.09;5038993;28;20206;-76
2021/08/31 04:20:19;;;;;;;25.30;22.90;;;;;;;13.67;100.00;100990.34;5037915;28;20264;-79
2021/08/31 04:22:45;;;;;;;26.47;23.77;;;;;;;13.68;100.00;100999.09;5035942;28;20273;-77
2021/08/31 04:25:12;;;;;;;25.60;23.17;;;;;;;13.65;100.00;100994.75;5034970;28;20210;-77
2021/08/31 04:27:38;;;;;;;26.87;24.00;;;;;;;13.66;100.00;100998.28;5037580;28;20205;-78
2021/08/31 04:30:06;;;;;;;25.27;22.87;;;;;;;13.63;100.00;101003.56;5039431;28;20201;-78
2021/08/31 04:32:32;;;;;;;25.50;23.20;;;;;;;13.63;100.00;101004.44;5036074;28;20206;-78
2021/08/31 04:35:02;;;;;;;26.87;23.60;;;;;;;13.63;100.00;101014.94;5033849;28;20676;-78
2021/08/31 04:37:29;;;;;;;24.83;22.53;;;;;;;13.57;100.00;101019.47;5042555;28;20684;-77
2021/08/31 04:39:55;;;;;;;26.43;23.87;;;;;;;13.53;100.00;101013.41;5039542;28;20206;-78
2021/08/31 04:42:21;;;;;;;24.53;22.37;;;;;;;13.48;100.00;101008.28;5037188;28;20206;-78
2021/08/31 04:44:48;;;;;;;26.93;24.17;;;;;;;13.45;100.00;101004.84;5031267;28;20223;-77
2021/08/31 04:47:15;;;;;;;26.63;23.77;;;;;;;13.42;100.00;101010.16;5038940;28;20319;-77
2021/08/31 04:49:41;;;;;;;26.43;23.00;;;;;;;13.42;100.00;101018.91;5033980;28;20216;-79
2021/08/31 04:52:10;;;;;;;27.53;24.80;;;;;;;13.42;100.00;101018.00;5035025;28;20240;-77
2021/08/31 04:54:36;;;;;;;25.67;22.87;;;;;;;13.41;100.00;101024.16;5040554;28;20233;-78
2021/08/31 04:57:03;;;;;;;24.87;22.47;;;;;;;13.37;100.00;101017.25;5040871;28;20259;-79
2021/08/31 04:59:29;;;;;;;26.50;23.20;;;;;;;13.34;100.00;101015.59;5038125;28;20214;-78
2021/08/31 05:01:56;;;;;;;27.70;24.03;;;;;;;13.33;100.00;101024.31;5036014;28;20229;-78
2021/08/31 05:04:27;;;;;;;26.20;23.40;;;;;;;13.29;100.00;101025.25;5038961;28;20206;-78
2021/08/31 05:06:54;;;;;;;25.80;23.20;;;;;;;13.27;100.00;101029.66;5038064;28;20201;-78
2021/08/31 05:09:21;;;;;;;26.17;22.63;;;;;;;13.26;100.00;101035.78;5039676;28;20209;-78
2021/08/31 05:11:48;;;;;;;25.33;22.43;;;;;;;13.24;100.00;101035.84;5036810;28;20225;-79
2021/08/31 05:14:14;;;;;;;25.10;22.67;;;;;;;13.24;100.00;101040.19;5040389;28;20209;-79
2021/08/31 05:16:40;;;;;;;24.67;22.30;;;;;;;13.19;100.00;101047.31;5038977;28;20224;-79
2021/08/31 05:19:07;;;;;;;24.87;22.50;;;;;;;13.15;100.00;101048.28;5042535;28;20248;-77
2021/08/31 05:21:34;;;;;;;24.43;21.70;;;;;;;13.17;100.00;101051.72;5038543;28;20296;-78
2021/08/31 05:24:01;;;;;;;24.07;21.63;;;;;;;13.17;100.00;101063.06;5034827;28;20206;-78
2021/08/31 05:26:28;;;;;;;25.33;21.97;;;;;;;13.24;100.00;101071.66;5030130;28;20289;-78
2021/08/31 05:28:54;;;;;;;21.60;19.77;;;;;;;13.20;100.00;101075.25;5037134;28;20203;-78
2021/08/31 05:31:21;;;;;;;23.23;20.83;;;;;;;13.21;100.00;101079.59;5030370;28;20238;-78
2021/08/31 05:33:47;;;;;;;23.37;20.97;;;;;;;13.18;100.00;101085.78;5028944;28;20280;-79
2021/08/31 05:36:13;;;;;;;22.83;20.83;;;;;;;13.20;100.00;101086.63;5030866;28;20861;-78
2021/08/31 05:38:40;;;;;;;21.80;19.93;;;;;;;13.21;100.00;101087.47;5039912;28;20839;-79
2021/08/31 05:41:06;;;;;;;21.97;19.93;;;;;;;13.18;100.00;101090.13;5030060;28;20234;-77
2021/08/31 05:43:34;;;;;;;22.80;20.57;;;;;;;13.18;100.00;101096.28;5029807;28;20279;-76
2021/08/31 05:46:00;;;;;;;23.50;20.23;;;;;;;13.20;100.00;101101.47;5027123;28;20207;-77
2021/08/31 05:48:26;;;;;;;22.07;20.17;;;;;;;13.27;100.00;101105.69;5028111;28;20511;-79
2021/08/31 05:50:53;;;;;;;21.30;19.37;;;;;;;13.29;100.00;101115.28;5030299;28;20651;-77
2021/08/31 05:53:19;;;;;;;20.73;18.87;;;;;;;13.32;100.00;101119.63;5029154;28;20639;-79
2021/08/31 05:55:45;;;;;;;22.70;20.43;;;;;;;13.28;100.00;101128.41;5029702;28;20207;-79
2021/08/31 05:58:12;;;;;;;21.17;19.23;;;;;;;13.29;100.00;101128.41;5030473;28;20233;-79
2021/08/31 06:00:39;;;;;;;20.90;18.87;;;;;;;13.27;100.00;101129.31;5037375;28;20237;-78
2021/08/31 06:03:06;;;;;;;21.87;19.87;;;;;;;13.30;100.00;101134.53;5027051;28;21396;-78
2021/08/31 06:05:32;;;;;;;21.00;19.00;;;;;;;13.25;100.00;101141.56;5034890;28;20210;-78
2021/08/31 06:07:58;;;;;;;20.93;19.23;;;;;;;13.26;100.00;101140.66;5030450;28;20240;-78
2021/08/31 06:10:25;;;;;;;20.07;18.40;;;;;;;13.28;100.00;101144.16;5038557;28;20225;-79
2021/08/31 06:12:51;;;;;;;20.87;19.17;;;;;;;13.23;100.00;101159.09;5030423;28;20210;-78
2021/08/31 06:15:19;;;;;;;22.30;20.10;;;;;;;13.26;100.00;101154.66;5034540;28;20214;-78
2021/08/31 06:17:46;;;;;;;20.70;18.67;;;;;;;13.33;100.00;101159.81;5028323;28;20217;-79
2021/08/31 06:20:13;;;;;;;20.73;19.03;;;;;;;13.38;100.00;101173.69;5033425;28;20233;-76
2021/08/31 06:22:39;;;;;;;20.90;18.73;;;;;;;13.41;100.00;101173.66;5038452;28;20210;-77
2021/08/31 06:25:07;;;;;;;20.43;18.70;;;;;;;13.50;100.00;101183.97;5030784;28;20238;-76
2021/08/31 06:27:33;;;;;;;20.83;18.93;;;;;;;13.57;100.00;101189.97;5029225;28;20211;-76
2021/08/31 06:30:00;;;;;;;20.00;18.03;;;;;;;13.60;100.00;101200.41;5031020;28;20215;-74
2021/08/31 06:32:26;;;;;;;20.20;18.33;;;;;;;13.67;100.00;101215.97;5028679;28;20202;-77
2021/08/31 06:34:54;;;;;;;19.50;17.60;;;;;;;13.74;100.00;101240.34;5024432;28;20206;-76
2021/08/31 06:37:20;;;;;;;22.83;18.83;;;;;;;13.86;100.00;101244.50;5028046;28;20632;-74
2021/08/31 06:39:46;;;;;;;18.20;16.70;;;;;;;13.89;100.00;101263.69;5033470;28;20206;-77
2021/08/31 06:42:13;;;;;;;20.10;18.40;;;;;;;13.80;99.98;101291.84;5035496;28;20230;-79
2021/08/31 06:44:39;;;;;;;21.13;18.93;;;;;;;13.68;100.00;101279.81;5032333;28;20244;-76
2021/08/31 06:47:06;;;;;;;20.13;18.43;;;;;;;13.73;100.00;101272.72;5034461;28;20260;-77
2021/08/31 06:49:32;;;;;;;19.87;18.17;;;;;;;13.79;100.00;101269.13;5033830;28;20212;-77
2021/08/31 06:52:00;;;;;;;21.17;19.33;;;;;;;13.80;100.00;101266.47;5028586;28;21132;-77
2021/08/31 06:54:26;;;;;;;20.53;18.70;;;;;;;13.92;100.00;101267.13;5033148;28;20214;-77
2021/08/31 06:56:53;;;;;;;21.63;19.73;;;;;;;14.02;100.00;101282.66;5032751;28;20236;-77
2021/08/31 06:59:19;;;;;;;21.70;19.60;;;;;;;14.07;100.00;101291.34;5027785;28;20218;-78
2021/08/31 07:01:45;;;;;;;21.67;19.87;;;;;;;14.16;99.33;101306.03;5029899;28;20541;-77
2021/08/31 07:04:12;;;;;;;20.13;18.37;;;;;;;14.22;99.18;101321.66;5029609;28;20607;-77
2021/08/31 07:06:38;;;;;;;21.47;19.60;;;;;;;14.30;98.96;101329.38;5033673;28;20233;-76
2021/08/31 07:09:06;;;;;;;27.00;19.47;;;;;;;14.45;98.73;101334.34;5031974;28;20203;-76
2021/08/31 07:11:32;;;;;;;24.20;21.67;;;;;;;14.43;98.44;101332.59;5035258;28;20218;-77
2021/08/31 07:13:59;;;;;;;21.63;19.67;;;;;;;14.42;98.47;101330.91;5038593;28;20252;-76
2021/08/31 07:16:25;;;;;;;22.63;20.53;;;;;;;14.34;97.96;101352.06;5033126;28;20213;-76
2021/08/31 07:18:51;;;;;;;22.70;20.67;;;;;;;14.44;98.51;101334.34;5032710;28;20261;-77
2021/08/31 07:21:18;;;;;;;22.80;20.77;;;;;;;14.50;97.83;101363.13;5034396;28;20229;-74
2021/08/31 07:23:44;;;;;;;23.07;21.07;;;;;;;14.49;97.58;101370.16;5034739;28;20240;-78
2021/08/31 07:26:12;;;;;;;25.10;22.60;;;;;;;14.43;97.66;101372.91;5035264;28;20207;-77
2021/08/31 07:28:38;;;;;;;23.70;21.57;;;;;;;14.46;97.66;101370.19;5029160;28;20354;-77
2021/08/31 07:31:04;;;;;;;24.43;22.40;;;;;;;14.51;98.42;101338.59;5038302;28;20232;-77
2021/08/31 07:33:31;;;;;;;25.30;22.90;;;;;;;14.40;98.44;101333.56;5032633;28;20211;-77
2021/08/31 07:35:57;;;;;;;23.90;21.77;;;;;;;14.38;98.54;101327.47;5031055;28;20752;-75
2021/08/31 07:38:23;;;;;;;24.87;22.13;;;;;;;14.35;98.36;101329.28;5031306;28;20238;-78
2021/08/31 07:40:50;;;;;;;24.87;22.50;;;;;;;14.44;98.73;101327.34;5035374;28;20230;-77
2021/08/31 07:43:17;;;;;;;24.57;22.37;;;;;;;14.56;98.78;101323.63;5036842;28;20210;-76
2021/08/31 07:45:44;;;;;;;25.37;22.30;;;;;;;14.67;98.48;101326.03;5037776;28;20217;-76
2021/08/31 07:48:10;;;;;;;22.80;20.57;;;;;;;14.59;97.76;101351.59;5033014;28;20453;-78
2021/08/31 07:50:37;;;;;;;23.97;21.37;;;;;;;14.58;97.71;101360.38;5030762;28;20226;-77
2021/08/31 07:53:04;;;;;;;27.17;22.03;;;;;;;14.61;97.76;101353.31;5037104;28;20205;-77
2021/08/31 07:55:31;;;;;;;22.13;20.03;;;;;;;14.62;97.73;101357.63;5041449;28;20347;-78
2021/08/31 07:57:57;;;;;;;22.10;19.93;;;;;;;14.70;97.68;101365.38;5039543;28;20213;-78
2021/08/31 08:00:25;;;;;;;22.47;20.37;;;;;;;14.64;97.37;101366.34;5041658;28;20236;-77
2021/08/31 08:02:51;;;;;;;22.60;20.70;;;;;;;14.64;97.37;101370.75;5032744;28;20810;-78
2021/08/31 08:05:17;;;;;;;22.17;20.17;;;;;;;14.61;97.67;101365.59;5032309;28;20575;-77
2021/08/31 08:07:44;;;;;;;22.63;20.57;;;;;;;14.62;97.77;101360.28;5033328;28;20238;-75
2021/08/31 08:10:11;;;;;;;23.50;21.23;;;;;;;14.72;98.48;101332.03;5038622;28;20199;-78
2021/08/31 08:12:37;;;;;;;23.73;21.20;;;;;;;14.82;98.20;101332.69;5035883;28;20601;-76
2021/08/31 08:15:04;;;;;;;21.97;19.87;;;;;;;14.76;97.45;101354.72;5035062;28;20634;-77
2021/08/31 08:17:32;;;;;;;21.17;19.23;;;;;;;14.77;97.28;101366.13;5033134;28;20730;-77
2021/08/31 08:19:58;;;;;;;22.37;20.20;;;;;;;14.91;97.51;101365.81;5034619;28;20239;-76
2021/08/31 08:22:25;;;;;;;21.00;18.77;;;;;;;14.99;96.90;101379.66;5038631;28;20222;-76
2021/08/31 08:24:52;;;;;;;20.53;18.60;;;;;;;15.04;96.64;101399.69;5032093;28;20216;-75
2021/08/31 08:27:18;;;;;;;20.87;19.00;;;;;;;15.12;96.56;101399.50;5037245;28;20252;-77
2021/08/31 08:29:44;;;;;;;18.37;16.90;;;;;;;15.16;95.93;101410.81;5036841;28;20203;-76
2021/08/31 08:32:12;;;;;;;18.63;16.77;;;;;;;15.14;95.25;101431.88;5034850;28;20234;-75
2021/08/31 08:34:41;;;;;;;19.00;17.40;;;;;;;15.24;95.55;101427.28;5035698;28;20214;-77
2021/08/31 08:37:08;;;;;;;18.73;17.10;;;;;;;15.29;95.03;101439.44;5036275;28;20663;-76
2021/08/31 08:39:35;;;;;;;17.00;15.70;;;;;;;15.44;94.78;101450.50;5035108;28;20218;-77
2021/08/31 08:42:04;;;;;;;16.67;15.27;;;;;;;15.45;93.76;101482.06;5037775;28;20231;-76
2021/08/31 08:44:30;;;;;;;15.30;14.00;;;;;;;15.47;92.53;101527.63;5034396;28;20745;-77
2021/08/31 08:46:57;;;;;;;15.60;14.20;;;;;;;15.56;92.70;101529.22;5035287;28;20250;-78
2021/08/31 08:49:24;;;;;;;13.97;12.87;;;;;;;15.61;91.39;101556.28;5033358;28;20241;-77
2021/08/31 08:51:54;;;;;;;14.00;12.53;;;;;;;15.64;90.62;101569.38;5033362;28;20373;-75
2021/08/31 08:54:20;;;;;;;13.43;12.27;;;;;;;15.73;90.71;101576.22;5033913;28;20203;-76
2021/08/31 08:56:47;;;;;;;11.97;11.07;;;;;;;15.81;90.04;101592.72;5037467;28;20203;-78
2021/08/31 08:59:13;;;;;;;10.73;9.93;;;;;;;15.85;87.01;101702.34;5037372;28;21236;-78
2021/08/31 09:01:42;;;;;;;11.17;10.37;;;;;;;16.01;88.87;101651.97;5036692;28;20292;-76
2021/08/31 09:04:09;;;;;;;12.47;11.47;;;;;;;16.12;89.11;101606.97;5033698;28;20246;-77
2021/08/31 09:06:36;;;;;;;12.50;11.40;;;;;;;16.05;87.99;101656.28;5036748;28;20299;-77
2021/08/31 09:09:06;;;;;;;12.13;11.23;;;;;;;16.15;87.87;101644.63;5037368;28;20754;-77
2021/08/31 09:11:34;;;;;;;11.53;10.53;;;;;;;16.17;88.01;101663.03;5034904;28;20228;-77
2021/08/31 09:14:22;;;;;;;11.53;10.43;;;;;;;16.17;85.91;101708.69;5031723;28;20323;-77
2021/08/31 09:16:51;;;;;;;11.00;10.10;;;;;;;16.26;87.60;101663.69;5034669;28;20196;-77
2021/08/31 09:19:18;;;;;;;11.37;10.57;;;;;;;16.28;86.09;101698.78;5033561;28;20213;-78
2021/08/31 09:21:47;;;;;;;11.03;10.13;;;;;;;16.34;86.08;101704.84;5033252;28;20230;-76
2021/08/31 09:24:15;;;;;;;11.17;10.10;;;;;;;16.40;86.76;101676.56;5030955;28;20203;-76
2021/08/31 09:26:43;;;;;;;11.37;10.47;;;;;;;16.48;87.60;101629.81;5034154;28;20195;-76
2021/08/31 09:29:27;;;;;;;12.27;11.37;;;;;;;16.53;87.36;101648.16;5033291;28;20265;-77
2021/08/31 09:31:56;;;;;;;10.43;9.63;;;;;;;16.57;87.80;101617.28;5032260;28;20450;-76
2021/08/31 09:34:37;;;;;;;10.30;9.40;;;;;;;16.70;86.06;101668.81;5029947;28;20222;-76
2021/08/31 09:37:27;;;;;;;10.37;9.57;;;;;;;16.76;84.71;101716.13;5032056;28;20219;-76
2021/08/31 09:40:12;;;;;;;9.73;9.00;;;;;;;16.87;82.55;101795.91;5033307;28;20217;-77
2021/08/31 09:42:55;;;;;;;9.60;8.80;;;;;;;16.92;82.65;101806.31;5035529;28;20265;-76
2021/08/31 09:45:25;;;;;;;9.00;8.30;;;;;;;17.04;81.61;101855.28;5034023;28;20249;-77
2021/08/31 09:47:52;;;;;;;9.20;8.40;;;;;;;17.07;80.35;101885.13;5032952;28;20214;-77
2021/08/31 09:50:34;;;;;;;10.07;9.17;;;;;;;17.06;81.55;101833.25;5032486;28;20642;-76
2021/08/31 09:53:02;;;;;;;10.07;9.27;;;;;;;17.19;82.16;101788.13;5035618;28;20218;-77
2021/08/31 09:55:30;;;;;;;9.50;8.80;;;;;;;17.14;81.68;101808.47;5032053;28;20261;-76
2021/08/31 09:58:10;;;;;;;10.20;9.30;;;;;;;17.29;82.59;101754.44;5034459;28;20235;-76
2021/08/31 10:00:37;;;;;;;9.13;8.43;;;;;;;17.30;81.88;101791.34;5038822;28;20800;-76
2021/08/31 10:03:04;;;;;;;9.93;9.23;;;;;;;17.39;81.66;101780.56;5028016;28;20259;-75
2021/08/31 10:05:33;;;;;;;9.27;8.43;;;;;;;17.38;80.48;101820.19;5025964;28;20215;-77
2021/08/31 10:08:01;;;;;;;9.00;8.30;;;;;;;17.40;79.77;101845.66;5034213;28;20416;-77
2021/08/31 10:10:30;;;;;;;8.03;7.37;;;;;;;17.42;80.30;101828.00;5036110;28;20233;-77
2021/08/31 10:12:57;;;;;;;8.00;7.27;;;;;;;17.55;79.09;101865.50;5029474;28;20311;-78
2021/08/31 10:15:24;;;;;;;8.47;7.50;;;;;;;17.69;78.12;101894.22;5027448;28;20207;-78
2021/08/31 10:17:51;;;;;;;7.83;7.33;;;;;;;17.80;76.93;101957.31;5030405;28;20242;-77
2021/08/31 10:20:22;;;;;;;7.57;6.93;;;;;;;17.94;76.75;101946.44;5027044;28;20349;-78
2021/08/31 10:22:49;;;;;;;8.77;8.07;;;;;;;17.98;76.64;101948.13;5028238;28;20290;-78
2021/08/31 10:25:21;;;;;;;8.17;7.47;;;;;;;17.92;76.37;101964.09;5029605;28;20222;-77
2021/08/31 10:27:50;;;;;;;9.70;9.00;;;;;;;17.97;78.19;101882.97;5031601;28;20215;-77
2021/08/31 10:30:37;;;;;;;9.07;8.37;;;;;;;18.02;78.83;101844.94;5036191;28;20271;-78
2021/08/31 10:33:20;;;;;;;8.73;8.03;;;;;;;18.04;77.97;101864.25;5026214;28;21096;-77
2021/08/31 10:35:54;;;;;;;8.80;8.00;;;;;;;18.09;78.01;101879.97;5028091;28;20208;-77
2021/08/31 10:38:39;;;;;;;9.23;8.47;;;;;;;18.20;78.02;101863.84;5035025;28;20221;-77
2021/08/31 10:41:45;;;;;;;8.77;8.13;;;;;;;18.29;77.98;101873.28;5032732;28;20223;-76
2021/08/31 10:44:40;;;;;;;8.93;8.20;;;;;;;18.38;78.09;101851.88;5033480;28;20698;-76
2021/08/31 10:47:18;;;;;;;8.43;7.73;;;;;;;18.47;77.68;101867.44;5033057;28;20205;-77
2021/08/31 10:50:22;;;;;;;7.20;6.60;;;;;;;18.48;74.53;101993.47;5036458;28;20205;-77
2021/08/31 10:52:51;;;;;;;7.20;6.60;;;;;;;18.55;74.09;102028.56;5034219;28;20272;-78
2021/08/31 10:55:41;;;;;;;7.40;6.80;;;;;;;18.60;74.17;102008.16;5029464;28;20279;-78
2021/08/31 10:58:10;;;;;;;7.30;6.80;;;;;;;18.72;74.80;101978.72;5032209;28;20280;-78
2021/08/31 11:00:53;;;;;;;6.87;6.23;;;;;;;18.86;70.53;102073.59;5029066;28;20421;-80
2021/08/31 11:03:37;;;;;;;5.70;5.30;;;;;;;19.06;71.33;102099.50;5038334;28;20315;-78
2021/08/31 11:06:37;;;;;;;5.50;5.10;;;;;;;19.08;69.58;102177.09;5029994;28;20198;-78
2021/08/31 11:09:20;;;;;;;6.37;5.83;;;;;;;19.23;69.97;102147.56;5029808;28;20207;-78
2021/08/31 11:12:01;;;;;;;6.53;6.03;;;;;;;19.31;70.32;102115.59;5032134;28;20225;-75
2021/08/31 11:14:40;;;;;;;7.10;6.50;;;;;;;19.36;68.38;102177.22;5029297;28;20202;-78
2021/08/31 11:17:08;;;;;;;6.43;5.93;;;;;;;19.44;68.96;102169.94;5029202;28;20552;-78